Time;durP1;ratioP1;P1;durP2;ratioP2;P2;SDS_P1;SDS_P2;PMS_P1;PMS_P2;Temp;Humidity;BMP_temperature;BMP_pressure;BME280_temperature;BME280_humidity;BME280_pressure;Samples;Min_cycle;Max_cycle;Signal;HPM_P1;HPM_P2
2024/02/06 00:00:37;;;;;;;12.23;5.22;;;10.30;86.80;;;;;;9173911;19;20047;-70
2024/02/06 00:03:49;;;;;;;16.48;4.63;;;10.30;86.10;;;;;;9170822;19;20018;-71
2024/02/06 00:06:54;;;;;;;13.55;5.60;;;10.40;86.20;;;;;;9169957;19;20119;-70
2024/02/06 00:10:02;;;;;;;15.60;5.10;;;10.30;86.10;;;;;;9171154;19;20014;-70
2024/02/06 00:13:08;;;;;;;12.13;5.20;;;10.30;86.10;;;;;;9171628;19;20066;-70
2024/02/06 00:16:16;;;;;;;11.70;4.97;;;10.40;86.30;;;;;;9174249;19;20011;-70
2024/02/06 00:19:24;;;;;;;17.83;5.07;;;10.40;86.40;;;;;;9171658;19;20014;-72
2024/02/06 00:22:32;;;;;;;22.42;5.35;;;10.40;86.20;;;;;;9178572;19;20025;-71
2024/02/06 00:25:38;;;;;;;17.10;4.63;;;10.50;86.40;;;;;;9180380;19;20113;-70
2024/02/06 00:28:46;;;;;;;15.70;5.43;;;10.50;86.10;;;;;;9180253;19;20015;-70
2024/02/06 00:31:52;;;;;;;16.63;4.80;;;10.40;86.00;;;;;;9181112;19;20484;-70
2024/02/06 00:35:02;;;;;;;16.67;5.18;;;10.40;86.20;;;;;;9179741;19;20030;-71
2024/02/06 00:38:07;;;;;;;16.42;5.60;;;10.40;86.00;;;;;;9181330;19;20014;-70
2024/02/06 00:41:15;;;;;;;19.55;5.18;;;10.40;86.10;;;;;;9179650;19;20018;-71
2024/02/06 00:44:20;;;;;;;16.98;5.03;;;10.40;85.90;;;;;;9181438;19;20495;-71
2024/02/06 00:47:28;;;;;;;15.85;5.15;;;10.40;86.10;;;;;;9182885;19;20015;-70
2024/02/06 00:50:36;;;;;;;14.35;4.70;;;10.40;85.90;;;;;;9182004;19;20030;-71
2024/02/06 00:53:44;;;;;;;16.23;4.65;;;10.40;86.10;;;;;;9179414;19;20082;-70
2024/02/06 00:56:50;;;;;;;16.63;4.93;;;10.50;86.10;;;;;;9181219;19;20010;-70
2024/02/06 00:59:58;;;;;;;19.88;5.00;;;10.40;86.00;;;;;;9179090;19;20033;-71
2024/02/06 01:03:03;;;;;;;14.45;4.40;;;10.50;86.10;;;;;;9176281;19;20018;-70
2024/02/06 01:06:13;;;;;;;16.23;4.38;;;10.50;86.10;;;;;;9174233;19;20026;-70
2024/02/06 01:09:19;;;;;;;12.00;3.97;;;10.60;86.20;;;;;;9180949;19;20015;-70
2024/02/06 01:12:26;;;;;;;19.90;4.75;;;10.50;85.80;;;;;;9179586;19;20026;-70
2024/02/06 01:15:32;;;;;;;18.05;4.05;;;10.50;85.90;;;;;;9179725;19;20040;-71
2024/02/06 01:18:40;;;;;;;9.85;4.60;;;10.50;85.80;;;;;;9172619;19;20029;-70
2024/02/06 01:21:48;;;;;;;15.10;4.55;;;10.50;85.90;;;;;;9173072;19;20015;-70
2024/02/06 01:24:56;;;;;;;9.40;4.47;;;10.50;85.90;;;;;;9173523;19;20022;-71
2024/02/06 01:28:02;;;;;;;8.95;4.40;;;10.50;85.90;;;;;;9174023;19;20068;-70
2024/02/06 01:31:10;;;;;;;13.82;4.75;;;10.60;85.90;;;;;;9175064;19;20375;-71
2024/02/06 01:34:17;;;;;;;13.75;4.95;;;10.60;86.00;;;;;;9173328;19;20362;-70
2024/02/06 01:37:28;;;;;;;12.43;4.78;;;10.60;85.90;;;;;;9179016;19;20014;-70
2024/02/06 01:40:42;;;;;;;14.82;5.15;;;10.60;85.90;;;;;;9178947;19;20018;-72
2024/02/06 01:43:50;;;;;;;12.60;4.60;;;10.60;85.80;;;;;;9175514;19;20464;-71
2024/02/06 01:46:56;;;;;;;15.95;5.43;;;10.70;86.00;;;;;;9177364;19;20014;-70
2024/02/06 01:50:04;;;;;;;15.25;4.57;;;10.70;86.20;;;;;;9176290;19;20038;-70
2024/02/06 01:53:13;;;;;;;16.45;4.82;;;10.80;86.00;;;;;;9176894;19;20029;-71
2024/02/06 01:56:21;;;;;;;28.45;7.07;;;10.70;85.80;;;;;;9177833;19;20494;-70
2024/02/06 01:59:29;;;;;;;13.63;4.93;;;10.80;85.70;;;;;;9175240;19;20019;-69
2024/02/06 02:02:37;;;;;;;18.63;4.95;;;10.70;85.70;;;;;;9174197;19;20022;-70
2024/02/06 02:05:45;;;;;;;25.20;6.65;;;10.70;85.70;;;;;;9173729;19;20864;-71
2024/02/06 02:08:56;;;;;;;13.82;4.80;;;10.70;85.70;;;;;;9175954;19;20018;-70
2024/02/06 02:12:01;;;;;;;10.40;5.20;;;10.70;85.70;;;;;;9177079;19;20014;-70
2024/02/06 02:15:11;;;;;;;14.27;5.18;;;10.70;85.70;;;;;;9177993;19;20369;-71
2024/02/06 02:18:16;;;;;;;11.32;5.25;;;10.70;85.80;;;;;;9175625;19;20827;-71
2024/02/06 02:21:27;;;;;;;20.30;5.57;;;10.80;85.70;;;;;;9176099;19;20508;-70
2024/02/06 02:24:32;;;;;;;25.25;6.32;;;10.70;85.70;;;;;;9176727;19;20064;-70
2024/02/06 02:27:40;;;;;;;14.98;5.13;;;10.80;85.70;;;;;;9176970;19;20027;-71
2024/02/06 02:30:46;;;;;;;9.45;4.88;;;10.70;85.60;;;;;;9177344;19;20391;-70
2024/02/06 02:33:54;;;;;;;19.85;5.57;;;10.80;85.80;;;;;;9173307;19;20492;-69
2024/02/06 02:37:04;;;;;;;21.05;5.40;;;10.70;85.70;;;;;;9176507;19;20014;-70
2024/02/06 02:40:13;;;;;;;18.75;5.18;;;10.70;85.70;;;;;;9176565;19;20119;-70
2024/02/06 02:43:19;;;;;;;16.42;5.47;;;10.70;86.30;;;;;;9173444;19;20015;-70
2024/02/06 02:46:27;;;;;;;16.00;5.30;;;10.70;85.70;;;;;;9175094;19;20025;-70
2024/02/06 02:49:33;;;;;;;20.58;6.22;;;10.80;86.00;;;;;;9175232;19;20014;-70
2024/02/06 02:52:43;;;;;;;26.90;6.03;;;10.70;85.70;;;;;;9174007;19;20018;-70
2024/02/06 02:55:49;;;;;;;24.38;6.00;;;10.70;86.10;;;;;;9175628;19;20051;-71
2024/02/06 02:58:56;;;;;;;25.08;5.05;;;10.70;85.80;;;;;;9176334;19;20746;-70
2024/02/06 03:02:02;;;;;;;17.20;4.85;;;10.80;86.00;;;;;;9174235;19;20022;-69
2024/02/06 03:05:10;;;;;;;16.02;5.05;;;10.70;86.00;;;;;;9169932;19;20010;-70
2024/02/06 03:08:18;;;;;;;18.70;5.65;;;10.70;85.80;;;;;;9174769;19;20025;-70
2024/02/06 03:11:26;;;;;;;14.90;5.35;;;10.80;85.90;;;;;;9173364;19;20018;-70
2024/02/06 03:14:32;;;;;;;16.55;4.85;;;10.70;86.00;;;;;;9174058;19;20011;-70
2024/02/06 03:17:40;;;;;;;16.73;4.78;;;10.70;85.90;;;;;;9174493;19;20022;-70
2024/02/06 03:20:45;;;;;;;19.05;5.10;;;10.80;85.90;;;;;;9174428;19;20014;-70
2024/02/06 03:23:55;;;;;;;18.13;4.90;;;10.80;85.80;;;;;;9172619;19;20014;-72
2024/02/06 03:27:01;;;;;;;20.48;4.85;;;10.80;85.80;;;;;;9173235;19;20041;-70
2024/02/06 03:30:10;;;;;;;19.42;4.70;;;10.80;85.80;;;;;;9172768;19;20034;-70
2024/02/06 03:33:15;;;;;;;14.27;4.35;;;10.80;85.80;;;;;;9174909;19;20048;-70
2024/02/06 03:36:23;;;;;;;18.80;4.78;;;10.90;85.90;;;;;;9172476;19;20464;-71
2024/02/06 03:39:32;;;;;;;14.90;5.82;;;10.80;85.80;;;;;;9173927;19;20026;-71
2024/02/06 03:42:39;;;;;;;19.15;4.85;;;10.80;85.80;;;;;;9172983;19;20029;-70
2024/02/06 03:45:45;;;;;;;15.38;4.95;;;10.90;85.90;;;;;;9171509;19;20469;-70
2024/02/06 03:48:52;;;;;;;18.30;4.15;;;10.80;85.70;;;;;;9174502;19;20015;-71
2024/02/06 03:51:58;;;;;;;20.40;4.32;;;10.90;85.70;;;;;;9172860;19;20015;-70
2024/02/06 03:55:09;;;;;;;10.55;3.38;;;10.80;85.80;;;;;;9173232;19;20026;-71
2024/02/06 03:58:15;;;;;;;18.70;4.05;;;10.90;85.70;;;;;;9182990;19;20018;-70
2024/02/06 04:01:22;;;;;;;16.63;3.85;;;10.90;85.80;;;;;;9183268;19;20014;-70
2024/02/06 04:04:28;;;;;;;13.27;3.47;;;10.90;86.30;;;;;;9175711;19;20022;-70
2024/02/06 04:07:36;;;;;;;19.10;3.70;;;10.90;85.60;;;;;;9180384;19;20033;-71
2024/02/06 04:10:44;;;;;;;16.10;4.47;;;10.90;85.60;;;;;;9182153;19;20505;-71
2024/02/06 04:13:52;;;;;;;18.20;4.25;;;11.00;85.70;;;;;;9179777;19;20018;-71
2024/02/06 04:16:57;;;;;;;20.92;4.07;;;10.90;85.60;;;;;;9181178;19;20014;-72
2024/02/06 04:20:05;;;;;;;18.27;3.72;;;10.90;85.60;;;;;;9180932;19;20021;-71
2024/02/06 04:23:11;;;;;;;17.45;3.97;;;10.90;85.60;;;;;;9179585;19;20033;-71
2024/02/06 04:26:21;;;;;;;21.50;3.70;;;11.00;85.50;;;;;;9180893;19;20018;-71
2024/02/06 04:29:27;;;;;;;17.05;3.55;;;11.00;85.60;;;;;;9181698;19;20006;-70
2024/02/06 04:32:34;;;;;;;16.30;3.97;;;11.00;85.60;;;;;;9181954;19;20037;-70
2024/02/06 04:35:40;;;;;;;16.40;4.50;;;11.00;85.60;;;;;;9179175;19;20014;-70
2024/02/06 04:38:48;;;;;;;21.55;4.70;;;11.00;85.80;;;;;;9180680;19;20380;-71
2024/02/06 04:41:56;;;;;;;20.35;4.57;;;11.00;85.70;;;;;;9182267;19;20022;-70
2024/02/06 04:45:03;;;;;;;19.67;4.68;;;11.10;85.70;;;;;;9178421;19;20022;-71
2024/02/06 04:48:10;;;;;;;21.63;4.60;;;11.00;85.70;;;;;;9175486;19;20623;-72
2024/02/06 04:51:18;;;;;;;23.95;5.32;;;11.00;85.80;;;;;;9179582;19;20014;-71
2024/02/06 04:54:24;;;;;;;13.43;3.53;;;11.00;85.70;;;;;;9180686;19;20014;-71
2024/02/06 04:57:34;;;;;;;23.98;4.45;;;11.00;85.70;;;;;;9180283;19;20007;-70
2024/02/06 05:00:40;;;;;;;19.60;4.57;;;10.90;85.60;;;;;;9179629;19;20014;-70
2024/02/06 05:03:47;;;;;;;17.90;4.30;;;10.90;85.70;;;;;;9179438;19;20047;-72
2024/02/06 05:06:53;;;;;;;16.23;5.28;;;11.00;85.60;;;;;;9176757;19;20506;-71
2024/02/06 05:10:01;;;;;;;16.98;4.55;;;10.90;85.70;;;;;;9179246;19;20017;-71
2024/02/06 05:13:09;;;;;;;16.63;4.10;;;10.90;85.70;;;;;;9180703;19;20020;-71
2024/02/06 05:16:17;;;;;;;17.73;5.40;;;10.90;85.80;;;;;;9180375;19;20019;-70
2024/02/06 05:19:23;;;;;;;7.50;3.72;;;10.90;86.00;;;;;;9177623;19;20011;-70
2024/02/06 05:22:30;;;;;;;24.60;4.35;;;10.90;86.10;;;;;;9180968;19;20025;-72
2024/02/06 05:25:36;;;;;;;16.27;4.00;;;10.90;85.90;;;;;;9176819;19;20429;-72
2024/02/06 05:28:46;;;;;;;16.55;4.47;;;10.80;85.90;;;;;;9179893;19;20026;-70
2024/02/06 05:31:52;;;;;;;25.13;4.80;;;11.00;86.80;;;;;;9180033;19;20467;-72
2024/02/06 05:34:59;;;;;;;19.75;4.78;;;10.80;86.00;;;;;;9178648;19;20014;-71
2024/02/06 05:38:05;;;;;;;17.30;3.90;;;10.80;86.30;;;;;;9179466;19;20017;-70
2024/02/06 05:41:14;;;;;;;12.30;4.15;;;10.80;86.10;;;;;;9178541;19;20023;-72
2024/02/06 05:44:22;;;;;;;21.58;4.00;;;10.80;86.40;;;;;;9176066;19;20025;-71
2024/02/06 05:47:29;;;;;;;14.57;4.28;;;10.70;86.20;;;;;;9179010;19;20495;-70
2024/02/06 05:50:35;;;;;;;26.95;4.72;;;10.70;86.30;;;;;;9178404;19;20022;-71
2024/02/06 05:53:43;;;;;;;18.85;4.22;;;10.80;86.50;;;;;;9176740;19;20022;-70
2024/02/06 05:56:50;;;;;;;25.50;4.57;;;10.70;86.40;;;;;;9177886;19;20018;-71
2024/02/06 06:00:03;;;;;;;24.95;5.85;;;10.80;86.50;;;;;;9175381;19;20018;-71
2024/02/06 06:03:08;;;;;;;20.25;4.35;;;10.70;86.40;;;;;;9177050;19;20050;-70
2024/02/06 06:06:16;;;;;;;19.63;4.65;;;10.70;86.50;;;;;;9170220;19;20022;-72
2024/02/06 06:09:22;;;;;;;11.05;5.20;;;10.80;86.70;;;;;;9176973;19;20019;-71
2024/02/06 06:12:31;;;;;;;16.00;5.00;;;10.70;86.40;;;;;;9177596;19;20022;-70
2024/02/06 06:15:39;;;;;;;21.50;5.20;;;10.70;86.60;;;;;;9178593;19;20021;-70
2024/02/06 06:18:47;;;;;;;19.95;5.93;;;10.70;86.70;;;;;;9175707;19;20012;-72
2024/02/06 06:21:53;;;;;;;17.92;5.40;;;10.70;86.60;;;;;;9178376;19;20014;-72
2024/02/06 06:25:00;;;;;;;22.20;5.88;;;10.70;86.60;;;;;;9175812;19;20014;-71
2024/02/06 06:28:08;;;;;;;19.88;6.47;;;10.70;86.70;;;;;;9177639;19;20827;-71
2024/02/06 06:31:18;;;;;;;16.63;6.78;;;10.60;87.30;;;;;;9177295;19;20434;-70
2024/02/06 06:34:24;;;;;;;18.67;6.60;;;10.60;86.70;;;;;;9174367;19;20077;-72
2024/02/06 06:37:32;;;;;;;17.92;6.13;;;10.50;86.70;;;;;;9175251;19;20030;-71
2024/02/06 06:40:43;;;;;;;23.83;6.10;;;10.60;86.70;;;;;;9176404;19;20074;-71
2024/02/06 06:43:50;;;;;;;15.35;6.35;;;10.60;86.80;;;;;;9176634;19;20023;-70
2024/02/06 06:46:59;;;;;;;18.02;6.18;;;10.60;87.50;;;;;;9173589;19;20011;-71
2024/02/06 06:50:07;;;;;;;15.20;5.75;;;10.60;86.90;;;;;;9176609;19;20010;-71
2024/02/06 06:53:14;;;;;;;26.38;7.28;;;10.50;86.90;;;;;;9176266;19;20019;-71
2024/02/06 06:56:21;;;;;;;19.23;6.82;;;10.50;87.00;;;;;;9173526;19;20089;-71
2024/02/06 06:59:27;;;;;;;16.92;6.28;;;10.60;87.10;;;;;;9176011;19;20019;-70
2024/02/06 07:02:37;;;;;;;18.35;6.28;;;10.50;87.10;;;;;;9175150;19;20488;-71
2024/02/06 07:05:44;;;;;;;20.95;6.57;;;10.50;87.10;;;;;;9168332;19;20006;-70
2024/02/06 07:08:53;;;;;;;19.88;6.32;;;10.70;87.30;;;;;;9173244;19;20022;-70
2024/02/06 07:11:59;;;;;;;23.33;5.32;;;10.60;87.20;;;;;;9174088;19;20748;-70
2024/02/06 07:15:07;;;;;;;20.92;5.75;;;10.60;87.30;;;;;;9174220;19;20018;-71
2024/02/06 07:18:15;;;;;;;18.08;5.45;;;10.60;87.30;;;;;;9173842;19;20418;-71
2024/02/06 07:21:23;;;;;;;15.88;5.30;;;10.60;88.20;;;;;;9173396;19;20010;-72
2024/02/06 07:24:29;;;;;;;20.42;5.55;;;10.50;87.30;;;;;;9170846;19;20015;-70
2024/02/06 07:27:36;;;;;;;19.77;5.85;;;10.60;87.40;;;;;;9174789;19;20014;-71
2024/02/06 07:30:42;;;;;;;19.85;6.03;;;10.60;87.40;;;;;;9170021;19;20019;-73
2024/02/06 07:33:52;;;;;;;24.65;6.72;;;10.60;87.40;;;;;;9171271;19;20901;-71
2024/02/06 07:36:58;;;;;;;26.38;6.53;;;10.60;88.00;;;;;;9174201;19;20011;-70
2024/02/06 07:40:06;;;;;;;19.42;6.25;;;10.60;87.50;;;;;;9171122;19;20022;-71
2024/02/06 07:43:12;;;;;;;17.05;6.28;;;10.60;87.30;;;;;;9171423;19;20487;-70
2024/02/06 07:46:25;;;;;;;19.73;6.60;;;10.60;87.50;;;;;;9169195;19;20017;-70
2024/02/06 07:49:33;;;;;;;21.85;6.05;;;10.60;87.50;;;;;;9172556;19;20031;-70
2024/02/06 07:52:42;;;;;;;24.38;6.90;;;10.70;87.50;;;;;;9173456;19;20787;-71
2024/02/06 07:55:48;;;;;;;17.85;6.32;;;10.70;87.70;;;;;;9166993;19;20014;-69
2024/02/06 07:58:57;;;;;;;23.95;5.47;;;10.60;88.30;;;;;;9166635;19;20025;-71
2024/02/06 08:02:03;;;;;;;30.45;6.78;;;10.60;87.60;;;;;;9168936;19;20107;-70
2024/02/06 08:05:14;;;;;;;23.42;7.68;;;10.70;87.70;;;;;;9162150;19;20025;-71
2024/02/06 08:08:19;;;;;;;30.98;7.00;;;10.70;87.70;;;;;;9166254;19;20010;-71
2024/02/06 08:11:27;;;;;;;13.65;5.95;;;10.70;87.80;;;;;;9170754;19;20547;-71
2024/02/06 08:14:33;;;;;;;20.17;5.97;;;10.70;87.80;;;;;;9172506;19;20475;-71
2024/02/06 08:17:42;;;;;;;20.35;5.85;;;10.80;87.80;;;;;;9171397;19;20018;-71
2024/02/06 08:20:50;;;;;;;27.00;5.35;;;10.80;87.90;;;;;;9172905;19;20725;-70
2024/02/06 08:23:58;;;;;;;31.23;6.35;;;10.90;88.10;;;;;;9173335;19;20022;-70
2024/02/06 08:27:04;;;;;;;20.70;6.05;;;10.80;88.00;;;;;;9167829;19;20107;-72
2024/02/06 08:30:13;;;;;;;19.30;5.93;;;10.80;87.90;;;;;;9168673;19;20017;-70
2024/02/06 08:33:18;;;;;;;24.33;6.72;;;10.70;87.80;;;;;;9172146;19;20014;-71
2024/02/06 08:36:29;;;;;;;26.52;6.57;;;10.80;87.90;;;;;;9172347;19;20014;-71
2024/02/06 08:39:34;;;;;;;20.83;5.60;;;10.80;88.00;;;;;;9171513;19;21038;-70
2024/02/06 08:42:42;;;;;;;21.85;5.43;;;10.80;88.10;;;;;;9177931;19;20018;-70
2024/02/06 08:45:49;;;;;;;21.10;5.60;;;10.80;88.00;;;;;;9181019;19;20011;-70
2024/02/06 08:48:59;;;;;;;21.23;6.57;;;10.80;88.00;;;;;;9180662;19;20021;-70
2024/02/06 08:52:08;;;;;;;21.23;5.18;;;10.80;88.10;;;;;;9179796;19;20010;-70
2024/02/06 08:55:16;;;;;;;24.65;6.10;;;10.90;88.00;;;;;;9179425;19;20010;-71
2024/02/06 08:58:21;;;;;;;25.15;5.95;;;10.90;88.30;;;;;;9178814;19;20504;-71
2024/02/06 09:01:30;;;;;;;22.80;5.28;;;10.90;88.10;;;;;;9179930;19;20396;-70
2024/02/06 09:04:36;;;;;;;17.95;6.40;;;10.90;88.20;;;;;;9174446;19;20657;-70
2024/02/06 09:07:46;;;;;;;14.77;4.72;;;10.90;88.10;;;;;;9176632;19;20014;-71
2024/02/06 09:10:52;;;;;;;20.17;5.57;;;10.90;88.10;;;;;;9179077;19;20356;-70
2024/02/06 09:14:00;;;;;;;16.25;6.10;;;11.00;88.20;;;;;;9178181;19;20444;-70
2024/02/06 09:17:06;;;;;;;22.77;6.32;;;10.90;88.40;;;;;;9179218;19;20057;-71
2024/02/06 09:20:14;;;;;;;19.10;6.40;;;10.90;88.40;;;;;;9178799;19;20021;-71
2024/02/06 09:23:23;;;;;;;22.40;5.72;;;10.90;88.20;;;;;;9177719;19;20022;-70
2024/02/06 09:26:30;;;;;;;18.55;5.35;;;10.90;88.40;;;;;;9177891;19;20018;-70
2024/02/06 09:29:36;;;;;;;23.30;5.82;;;11.00;88.40;;;;;;9177444;19;20018;-70
2024/02/06 09:32:43;;;;;;;14.48;5.78;;;10.90;88.40;;;;;;9175907;19;20021;-71
2024/02/06 09:35:49;;;;;;;20.35;6.10;;;11.00;88.50;;;;;;9176334;19;20026;-71
2024/02/06 09:38:59;;;;;;;18.40;5.70;;;10.90;88.50;;;;;;9178814;19;20019;-71
2024/02/06 09:42:05;;;;;;;20.33;6.32;;;10.90;88.40;;;;;;9177232;19;20460;-71
2024/02/06 09:45:13;;;;;;;22.58;5.57;;;10.90;88.90;;;;;;9177818;19;20022;-71
2024/02/06 09:48:18;;;;;;;19.85;4.88;;;11.00;88.50;;;;;;9178807;19;20011;-70
2024/02/06 09:51:27;;;;;;;21.98;5.70;;;11.00;88.50;;;;;;9179887;19;20580;-70
2024/02/06 09:54:39;;;;;;;20.23;6.75;;;11.00;88.50;;;;;;9177044;19;20481;-71
2024/02/06 09:57:48;;;;;;;12.27;4.97;;;11.00;88.50;;;;;;9177473;19;20025;-70
2024/02/06 10:00:56;;;;;;;15.20;5.18;;;11.00;88.50;;;;;;9176766;19;20007;-71
2024/02/06 10:04:06;;;;;;;17.88;5.32;;;11.10;88.50;;;;;;9173923;19;20538;-70
2024/02/06 10:07:14;;;;;;;15.00;4.70;;;11.10;88.40;;;;;;9175233;19;20022;-70
2024/02/06 10:10:26;;;;;;;20.08;5.05;;;11.10;88.40;;;;;;9177385;19;20023;-69
2024/02/06 10:13:32;;;;;;;25.23;4.97;;;11.10;88.60;;;;;;9177668;19;21256;-68
2024/02/06 10:16:39;;;;;;;26.52;5.20;;;11.20;88.50;;;;;;9177766;19;20034;-69
2024/02/06 10:19:45;;;;;;;23.45;3.83;;;11.20;88.60;;;;;;9177564;19;20042;-69
2024/02/06 10:22:52;;;;;;;29.95;4.78;;;11.30;89.40;;;;;;9177456;19;20014;-69
2024/02/06 10:26:06;;;;;;;17.00;5.10;;;11.30;88.50;;;;;;9174488;19;20484;-69
2024/02/06 10:29:17;;;;;;;29.38;4.70;;;11.30;88.50;;;;;;9174857;19;20361;-68
2024/02/06 10:32:23;;;;;;;27.58;4.40;;;11.40;88.80;;;;;;9176925;19;20018;-69
2024/02/06 10:35:31;;;;;;;24.63;4.15;;;11.40;88.60;;;;;;9176023;19;20540;-70
2024/02/06 10:38:38;;;;;;;20.63;4.22;;;11.50;88.60;;;;;;9176687;19;20010;-70
2024/02/06 10:41:48;;;;;;;22.23;4.85;;;11.50;88.80;;;;;;9177361;19;20014;-68
2024/02/06 10:45:20;;;;;;;22.90;4.38;;;11.50;89.20;;;;;;9175546;19;20018;-68
2024/02/06 10:48:28;;;;;;;13.25;4.07;;;11.60;88.60;;;;;;9173532;19;20025;-69
2024/02/06 10:51:34;;;;;;;23.02;5.88;;;11.70;88.60;;;;;;9175406;19;20078;-70
2024/02/06 10:54:42;;;;;;;14.35;3.05;;;11.70;88.70;;;;;;9174019;19;20510;-70
2024/02/06 10:57:53;;;;;;;20.52;3.47;;;12.00;88.90;;;;;;9173641;19;20014;-69
2024/02/06 11:01:02;;;;;;;23.10;5.20;;;11.90;88.40;;;;;;9176430;19;20014;-69
2024/02/06 11:04:13;;;;;;;16.70;4.18;;;11.90;88.50;;;;;;9169225;19;20464;-69
2024/02/06 11:07:22;;;;;;;13.52;2.80;;;12.00;88.10;;;;;;9173716;19;20022;-70
2024/02/06 11:10:36;;;;;;;17.30;4.30;;;12.00;88.20;;;;;;9173379;19;20015;-67
2024/02/06 11:13:50;;;;;;;12.43;3.22;;;12.20;88.70;;;;;;9175420;19;20022;-69
2024/02/06 11:17:00;;;;;;;13.75;2.90;;;12.20;88.10;;;;;;9175330;19;20101;-70
2024/02/06 11:20:14;;;;;;;15.77;2.90;;;12.20;88.10;;;;;;9173285;19;20018;-69
2024/02/06 11:23:20;;;;;;;15.25;2.25;;;12.20;87.80;;;;;;9174887;19;20082;-69
2024/02/06 11:26:28;;;;;;;16.75;2.95;;;12.30;87.80;;;;;;9173969;19;20019;-71
2024/02/06 11:29:37;;;;;;;11.25;2.50;;;12.40;87.90;;;;;;9170555;19;20021;-69
2024/02/06 11:32:45;;;;;;;15.27;2.90;;;12.40;87.80;;;;;;9173797;19;20018;-69
2024/02/06 11:35:51;;;;;;;20.85;2.40;;;12.50;87.70;;;;;;9174217;19;20484;-69
2024/02/06 11:39:08;;;;;;;17.58;2.67;;;12.50;87.50;;;;;;9172695;19;20014;-72
2024/02/06 11:42:24;;;;;;;13.27;2.50;;;12.50;87.40;;;;;;9172445;19;20018;-76
2024/02/06 11:45:36;;;;;;;11.43;2.75;;;12.50;87.40;;;;;;9168810;19;20018;-69
2024/02/06 11:48:43;;;;;;;17.88;3.17;;;12.50;87.30;;;;;;9172345;19;20031;-70
2024/02/06 11:51:54;;;;;;;13.07;2.65;;;12.60;87.40;;;;;;9173268;19;20014;-70
2024/02/06 11:55:00;;;;;;;15.20;2.42;;;12.60;87.10;;;;;;9172852;19;20496;-70
2024/02/06 11:58:08;;;;;;;16.55;2.83;;;12.60;87.10;;;;;;9174181;19;20472;-69
2024/02/06 12:01:26;;;;;;;11.57;3.65;;;12.60;87.00;;;;;;9172761;19;20381;-71
2024/02/06 12:04:34;;;;;;;15.73;2.75;;;12.70;86.90;;;;;;9166097;19;20014;-70
2024/02/06 12:07:40;;;;;;;18.83;3.03;;;12.70;86.80;;;;;;9170130;19;20022;-71
2024/02/06 12:10:48;;;;;;;17.60;2.58;;;12.80;86.80;;;;;;9172154;19;20018;-72
2024/02/06 12:13:54;;;;;;;16.30;2.80;;;12.80;86.80;;;;;;9171699;19;20022;-71
2024/02/06 12:17:06;;;;;;;19.15;3.00;;;12.80;86.60;;;;;;9172986;19;20477;-71
2024/02/06 12:20:13;;;;;;;10.88;2.72;;;12.80;86.40;;;;;;9181788;19;20018;-70
2024/02/06 12:23:24;;;;;;;12.13;2.92;;;12.80;86.40;;;;;;9179479;19;20014;-71
2024/02/06 12:26:30;;;;;;;12.18;2.35;;;12.90;86.40;;;;;;9180358;19;20018;-70
2024/02/06 12:29:39;;;;;;;15.38;2.40;;;12.90;86.50;;;;;;9179137;19;20015;-72
2024/02/06 12:32:47;;;;;;;13.00;2.53;;;12.90;86.30;;;;;;9181455;19;20030;-70
2024/02/06 12:35:57;;;;;;;29.33;3.58;;;13.00;86.20;;;;;;9174496;19;20017;-72
2024/02/06 12:39:12;;;;;;;8.32;2.38;;;12.90;86.00;;;;;;9179505;19;20024;-71
2024/02/06 12:42:20;;;;;;;11.90;2.38;;;13.00;86.20;;;;;;9175949;19;20483;-71
2024/02/06 12:45:25;;;;;;;15.63;2.70;;;13.00;86.20;;;;;;9178774;19;20014;-71
2024/02/06 12:48:35;;;;;;;18.67;2.25;;;13.00;86.20;;;;;;9177637;19;20011;-71
2024/02/06 12:51:41;;;;;;;19.00;2.90;;;13.10;86.00;;;;;;9175639;19;20029;-71
2024/02/06 12:54:50;;;;;;;10.18;2.10;;;13.10;86.00;;;;;;9180277;19;20648;-73
2024/02/06 12:57:57;;;;;;;10.95;2.05;;;13.10;85.80;;;;;;9180882;19;20483;-69
2024/02/06 13:01:06;;;;;;;10.40;2.72;;;13.20;85.80;;;;;;9179181;19;20487;-70
2024/02/06 13:04:24;;;;;;;8.48;1.88;;;13.20;85.70;;;;;;9173969;19;20022;-70
2024/02/06 13:07:33;;;;;;;9.00;2.05;;;13.20;85.50;;;;;;9175552;19;20014;-70
2024/02/06 13:10:39;;;;;;;12.40;1.98;;;13.10;85.60;;;;;;9174183;19;20066;-70
2024/02/06 13:13:48;;;;;;;9.85;1.90;;;13.20;85.40;;;;;;9177610;19;20526;-70
2024/02/06 13:16:54;;;;;;;17.33;3.35;;;13.20;85.40;;;;;;9177198;19;20021;-71
2024/02/06 13:20:11;;;;;;;8.82;2.00;;;13.20;85.40;;;;;;9178392;19;20015;-70
2024/02/06 13:23:21;;;;;;;6.07;1.55;;;13.20;85.10;;;;;;9177816;19;20039;-69
2024/02/06 13:26:28;;;;;;;13.68;2.75;;;13.20;85.30;;;;;;9178075;19;20021;-70
2024/02/06 13:29:37;;;;;;;10.20;2.50;;;13.30;85.10;;;;;;9177228;19;20365;-70
2024/02/06 13:32:45;;;;;;;15.23;3.20;;;13.20;85.10;;;;;;9179935;19;20022;-69
2024/02/06 13:35:53;;;;;;;21.35;2.20;;;13.20;84.90;;;;;;9177493;19;20015;-71
2024/02/06 13:39:01;;;;;;;9.50;2.05;;;13.30;84.90;;;;;;9178490;19;20387;-70
2024/02/06 13:42:07;;;;;;;10.52;2.80;;;13.30;85.20;;;;;;9172371;19;20018;-70
2024/02/06 13:45:15;;;;;;;17.88;2.08;;;13.10;84.60;;;;;;9174672;19;20018;-71
2024/02/06 13:48:20;;;;;;;15.75;4.03;;;13.10;84.70;;;;;;9175958;19;20022;-71
2024/02/06 13:51:30;;;;;;;9.43;2.45;;;13.10;84.80;;;;;;9174572;19;20014;-70
2024/02/06 13:54:36;;;;;;;19.15;3.42;;;13.10;84.80;;;;;;9176377;19;20101;-71
2024/02/06 13:57:44;;;;;;;21.95;3.63;;;13.10;84.80;;;;;;9176056;19;20021;-70
2024/02/06 14:00:50;;;;;;;16.00;2.67;;;13.10;84.60;;;;;;9175884;19;20018;-71
2024/02/06 14:04:01;;;;;;;13.35;2.95;;;13.10;84.70;;;;;;9133148;19;20018;-72
2024/02/06 14:07:18;;;;;;;17.25;2.63;;;13.00;84.60;;;;;;9136437;19;20018;-71
2024/02/06 14:10:26;;;;;;;18.17;3.05;;;13.10;84.50;;;;;;9156818;19;20014;-70
2024/02/06 14:13:32;;;;;;;21.55;3.58;;;13.10;84.50;;;;;;9176063;19;20019;-70
2024/02/06 14:16:39;;;;;;;13.75;3.00;;;13.00;84.40;;;;;;9174737;19;20022;-71
2024/02/06 14:19:45;;;;;;;20.65;3.47;;;13.00;84.30;;;;;;9172745;19;20038;-71
2024/02/06 14:22:55;;;;;;;15.20;2.88;;;13.00;84.30;;;;;;9171552;19;20373;-72
2024/02/06 14:26:01;;;;;;;15.45;2.53;;;13.00;84.20;;;;;;9174154;19;20018;-70
2024/02/06 14:29:08;;;;;;;18.05;2.45;;;13.00;84.90;;;;;;9174711;19;20053;-71
2024/02/06 14:32:14;;;;;;;10.48;3.35;;;13.00;84.10;;;;;;9174925;19;20027;-71
2024/02/06 14:35:22;;;;;;;20.33;3.70;;;13.00;84.00;;;;;;9177451;19;20011;-71
2024/02/06 14:38:34;;;;;;;18.58;3.90;;;13.00;83.90;;;;;;9175784;19;20472;-70
2024/02/06 14:41:41;;;;;;;16.40;2.55;;;13.00;83.90;;;;;;9177439;19;20677;-71
2024/02/06 14:44:48;;;;;;;29.50;3.47;;;13.00;84.00;;;;;;9176746;19;20015;-71
2024/02/06 14:47:58;;;;;;;19.20;3.92;;;13.10;84.00;;;;;;9172270;19;20071;-71
2024/02/06 14:51:05;;;;;;;26.33;3.65;;;13.00;83.80;;;;;;9173152;19;20026;-71
2024/02/06 14:54:15;;;;;;;25.13;4.35;;;13.00;83.80;;;;;;9172402;19;20021;-70
2024/02/06 14:57:21;;;;;;;27.02;4.15;;;12.90;83.60;;;;;;9172168;19;20022;-71
2024/02/06 15:00:33;;;;;;;32.38;5.20;;;12.90;83.70;;;;;;9173967;19;20109;-70
2024/02/06 15:03:39;;;;;;;25.63;3.67;;;13.00;83.90;;;;;;9172438;19;20014;-71
2024/02/06 15:06:47;;;;;;;26.33;3.55;;;12.90;83.60;;;;;;9161352;19;20039;-72
2024/02/06 15:09:56;;;;;;;22.50;5.40;;;12.90;83.70;;;;;;9167288;19;20011;-71
2024/02/06 15:13:04;;;;;;;21.17;3.15;;;12.90;83.50;;;;;;9168092;19;20010;-70
2024/02/06 15:16:09;;;;;;;27.25;4.35;;;12.90;83.50;;;;;;9168300;19;20112;-71
2024/02/06 15:19:17;;;;;;;26.20;3.45;;;12.90;83.60;;;;;;9170828;19;20018;-70
2024/02/06 15:22:23;;;;;;;25.85;3.95;;;12.80;83.50;;;;;;9168847;19;20606;-71
2024/02/06 15:25:33;;;;;;;20.98;3.42;;;12.80;83.40;;;;;;9171562;19;20014;-71
2024/02/06 15:28:39;;;;;;;23.30;5.78;;;12.80;84.00;;;;;;9170622;19;20104;-71
2024/02/06 15:31:46;;;;;;;19.25;3.83;;;12.80;83.50;;;;;;9163502;19;20014;-71
2024/02/06 15:34:52;;;;;;;28.73;4.28;;;12.80;83.40;;;;;;9171153;19;20014;-71
2024/02/06 15:38:00;;;;;;;20.55;3.13;;;12.70;83.30;;;;;;9169972;19;20011;-70
2024/02/06 15:41:23;;;;;;;18.40;3.58;;;12.70;83.40;;;;;;9170433;19;20019;-71
2024/02/06 15:44:32;;;;;;;21.95;3.25;;;12.70;83.30;;;;;;9164141;19;21306;-70
2024/02/06 15:47:37;;;;;;;29.05;4.38;;;12.70;83.70;;;;;;9170486;19;20021;-70
2024/02/06 15:50:45;;;;;;;18.88;3.00;;;12.70;83.50;;;;;;9164538;19;20754;-71
2024/02/06 15:53:51;;;;;;;18.98;3.35;;;12.70;83.50;;;;;;9180520;19;20778;-71
2024/02/06 15:57:01;;;;;;;19.75;4.15;;;12.60;83.50;;;;;;9179661;19;20025;-70
2024/02/06 16:00:08;;;;;;;22.52;3.33;;;12.60;83.60;;;;;;9178478;19;20038;-71
2024/02/06 16:03:19;;;;;;;23.58;4.40;;;12.50;83.50;;;;;;9180730;19;20021;-70
2024/02/06 16:06:24;;;;;;;26.60;3.53;;;12.50;83.70;;;;;;9174690;19;20017;-70